sensor_id;sensor_type;location;lat;lon;timestamp;pressure;altitude;pressure_sealevel;temperature;humidity
8047;BME280;67150;42.516;23.358;2023-05-24T00:00:26;88357.34;;;14.65;66.63
8047;BME280;67150;42.516;23.358;2023-05-24T00:02:53;88355.75;;;14.64;66.61
8047;BME280;67150;42.516;23.358;2023-05-24T00:05:22;88356.53;;;14.64;66.70
8047;BME280;67150;42.516;23.358;2023-05-24T00:07:49;88363.34;;;14.64;66.70
8047;BME280;67150;42.516;23.358;2023-05-24T00:10:17;88357.63;;;14.62;66.64
8047;BME280;67150;42.516;23.358;2023-05-24T00:12:45;88360.00;;;14.63;66.60
8047;BME280;67150;42.516;23.358;2023-05-24T00:15:13;88354.00;;;14.64;66.75
8047;BME280;67150;42.516;23.358;2023-05-24T00:17:40;88354.13;;;14.63;66.63
8047;BME280;67150;42.516;23.358;2023-05-24T00:20:09;88349.06;;;14.63;66.72
8047;BME280;67150;42.516;23.358;2023-05-24T00:22:38;88352.41;;;14.63;66.56
8047;BME280;67150;42.516;23.358;2023-05-24T00:25:06;88329.59;;;14.53;66.82
8047;BME280;67150;42.516;23.358;2023-05-24T00:27:34;88353.31;;;14.62;66.73
8047;BME280;67150;42.516;23.358;2023-05-24T00:30:04;88348.13;;;14.64;66.80
8047;BME280;67150;42.516;23.358;2023-05-24T00:32:32;88344.94;;;14.62;66.72
8047;BME280;67150;42.516;23.358;2023-05-24T00:34:59;88354.13;;;14.63;66.75
8047;BME280;67150;42.516;23.358;2023-05-24T00:37:26;88350.78;;;14.62;66.66
8047;BME280;67150;42.516;23.358;2023-05-24T00:39:54;88338.25;;;14.61;66.52
8047;BME280;67150;42.516;23.358;2023-05-24T00:42:21;88339.88;;;14.62;66.57
8047;BME280;67150;42.516;23.358;2023-05-24T00:44:49;88335.72;;;14.61;66.59
8047;BME280;67150;42.516;23.358;2023-05-24T00:47:17;88335.84;;;14.59;66.46
8047;BME280;67150;42.516;23.358;2023-05-24T00:49:45;88336.53;;;14.61;66.48
8047;BME280;67150;42.516;23.358;2023-05-24T00:52:13;88340.81;;;14.61;66.55
8047;BME280;67150;42.516;23.358;2023-05-24T00:54:40;88337.34;;;14.62;66.49
8047;BME280;67150;42.516;23.358;2023-05-24T00:57:07;88335.72;;;14.61;66.61
8047;BME280;67150;42.516;23.358;2023-05-24T00:59:35;88336.00;;;14.57;66.64
8047;BME280;67150;42.516;23.358;2023-05-24T01:02:02;88335.06;;;14.58;66.44
8047;BME280;67150;42.516;23.358;2023-05-24T01:04:31;88336.66;;;14.59;66.54
8047;BME280;67150;42.516;23.358;2023-05-24T01:09:56;88330.94;;;14.57;66.52
8047;BME280;67150;42.516;23.358;2023-05-24T01:12:28;88333.47;;;14.57;66.62
8047;BME280;67150;42.516;23.358;2023-05-24T01:15:02;88331.19;;;14.54;66.34
8047;BME280;67150;42.516;23.358;2023-05-24T01:17:37;88339.47;;;14.56;66.49
8047;BME280;67150;42.516;23.358;2023-05-24T01:20:12;88340.28;;;14.57;66.46
8047;BME280;67150;42.516;23.358;2023-05-24T01:26:02;88339.47;;;14.56;66.47
8047;BME280;67150;42.516;23.358;2023-05-24T01:28:35;88342.16;;;14.55;66.46
8047;BME280;67150;42.516;23.358;2023-05-24T01:31:03;88338.81;;;14.54;66.66
8047;BME280;67150;42.516;23.358;2023-05-24T01:33:31;88338.81;;;14.54;66.51
8047;BME280;67150;42.516;23.358;2023-05-24T01:35:59;88338.81;;;14.54;66.50
8047;BME280;67150;42.516;23.358;2023-05-24T01:38:26;88334.66;;;14.53;66.44
8047;BME280;67150;42.516;23.358;2023-05-24T01:40:58;88331.19;;;14.54;66.59
8047;BME280;67150;42.516;23.358;2023-05-24T01:43:31;88323.22;;;14.49;66.40
8047;BME280;67150;42.516;23.358;2023-05-24T01:46:08;88329.59;;;14.53;66.46
8047;BME280;67150;42.516;23.358;2023-05-24T01:48:43;88334.66;;;14.53;66.34
8047;BME280;67150;42.516;23.358;2023-05-24T01:51:17;88333.09;;;14.52;66.61
8047;BME280;67150;42.516;23.358;2023-05-24T01:53:45;88329.88;;;14.50;66.41
8047;BME280;67150;42.516;23.358;2023-05-24T01:56:15;88335.63;;;14.52;66.37
8047;BME280;67150;42.516;23.358;2023-05-24T01:58:46;88332.28;;;14.52;66.64
8047;BME280;67150;42.516;23.358;2023-05-24T02:01:15;88317.75;;;14.44;66.44
8047;BME280;67150;42.516;23.358;2023-05-24T02:03:43;88328.94;;;14.51;66.22
8047;BME280;67150;42.516;23.358;2023-05-24T02:06:10;88327.34;;;14.50;66.28
8047;BME280;67150;42.516;23.358;2023-05-24T02:08:37;88326.56;;;14.50;66.28
8047;BME280;67150;42.516;23.358;2023-05-24T02:11:05;88329.88;;;14.50;66.15
8047;BME280;67150;42.516;23.358;2023-05-24T02:13:32;88317.19;;;14.50;66.16
8047;BME280;67150;42.516;23.358;2023-05-24T02:15:59;88323.22;;;14.49;66.22
8047;BME280;67150;42.516;23.358;2023-05-24T02:18:28;88328.28;;;14.49;66.17
8047;BME280;67150;42.516;23.358;2023-05-24T02:20:59;88320.81;;;14.48;66.28
8047;BME280;67150;42.516;23.358;2023-05-24T02:23:27;88330.03;;;14.49;66.08
8047;BME280;67150;42.516;23.358;2023-05-24T02:25:54;88325.88;;;14.48;66.18
8047;BME280;67150;42.516;23.358;2023-05-24T02:28:22;88330.13;;;14.47;66.23
8047;BME280;67150;42.516;23.358;2023-05-24T02:30:49;88330.13;;;14.47;65.86
8047;BME280;67150;42.516;23.358;2023-05-24T02:33:16;88325.06;;;14.47;66.09
8047;BME280;67150;42.516;23.358;2023-05-24T02:35:45;88320.00;;;14.47;66.09
8047;BME280;67150;42.516;23.358;2023-05-24T02:38:12;88319.22;;;14.47;66.07
8047;BME280;67150;42.516;23.358;2023-05-24T02:40:39;88309.09;;;14.47;65.88
8047;BME280;67150;42.516;23.358;2023-05-24T02:43:06;88317.63;;;14.46;66.02
8047;BME280;67150;42.516;23.358;2023-05-24T02:45:34;88316.69;;;14.47;65.75
8047;BME280;67150;42.516;23.358;2023-05-24T02:48:02;88316.81;;;14.45;65.95
8047;BME280;67150;42.516;23.358;2023-05-24T02:50:29;88322.69;;;14.46;65.95
8047;BME280;67150;42.516;23.358;2023-05-24T02:52:58;88320.16;;;14.46;65.96
8047;BME280;67150;42.516;23.358;2023-05-24T02:55:26;88324.41;;;14.45;65.90
8047;BME280;67150;42.516;23.358;2023-05-24T02:57:53;88324.41;;;14.45;65.75
8047;BME280;67150;42.516;23.358;2023-05-24T03:00:21;88325.34;;;14.44;65.74
8047;BME280;67150;42.516;23.358;2023-05-24T03:02:48;88323.63;;;14.45;65.88
8047;BME280;67150;42.516;23.358;2023-05-24T03:05:17;88321.34;;;14.42;65.78
8047;BME280;67150;42.516;23.358;2023-05-24T03:07:44;88317.34;;;14.39;65.69
8047;BME280;67150;42.516;23.358;2023-05-24T03:10:13;88322.16;;;14.42;65.82
8047;BME280;67150;42.516;23.358;2023-05-24T03:12:40;88321.50;;;14.40;65.70
8047;BME280;67150;42.516;23.358;2023-05-24T03:15:08;88313.91;;;14.40;65.75
8047;BME280;67150;42.516;23.358;2023-05-24T03:17:36;88321.50;;;14.40;65.88
8047;BME280;67150;42.516;23.358;2023-05-24T03:20:04;88319.09;;;14.39;65.64
8047;BME280;67150;42.516;23.358;2023-05-24T03:22:32;88314.16;;;14.37;65.67
8047;BME280;67150;42.516;23.358;2023-05-24T03:24:59;88321.63;;;14.39;65.79
8047;BME280;67150;42.516;23.358;2023-05-24T03:27:28;88324.31;;;14.37;65.92
8047;BME280;67150;42.516;23.358;2023-05-24T03:29:55;88329.50;;;14.36;65.61
8047;BME280;67150;42.516;23.358;2023-05-24T03:32:23;88330.19;;;14.38;65.78
8047;BME280;67150;42.516;23.358;2023-05-24T03:34:50;88330.94;;;14.38;65.80
8047;BME280;67150;42.516;23.358;2023-05-24T03:37:17;88332.72;;;14.38;65.79
8047;BME280;67150;42.516;23.358;2023-05-24T03:39:45;88335.38;;;14.36;65.75
8047;BME280;67150;42.516;23.358;2023-05-24T03:42:12;88329.38;;;14.37;65.97
8047;BME280;67150;42.516;23.358;2023-05-24T03:44:41;88333.78;;;14.35;65.88
8047;BME280;67150;42.516;23.358;2023-05-24T03:47:08;88336.31;;;14.35;65.83
8047;BME280;67150;42.516;23.358;2023-05-24T03:49:35;88336.31;;;14.35;65.91
8047;BME280;67150;42.516;23.358;2023-05-24T03:52:03;88341.50;;;14.34;65.98
8047;BME280;67150;42.516;23.358;2023-05-24T03:54:30;88343.25;;;14.33;66.08
8047;BME280;67150;42.516;23.358;2023-05-24T03:56:58;88338.97;;;14.34;66.02
8047;BME280;67150;42.516;23.358;2023-05-24T03:59:25;88337.38;;;14.33;66.06
8047;BME280;67150;42.516;23.358;2023-05-24T04:01:54;88344.19;;;14.32;65.84
8047;BME280;67150;42.516;23.358;2023-05-24T04:04:21;88342.44;;;14.33;65.79
8047;BME280;67150;42.516;23.358;2023-05-24T04:06:48;88349.25;;;14.32;65.78
8047;BME280;67150;42.516;23.358;2023-05-24T04:09:16;88350.03;;;14.33;65.86
8047;BME280;67150;42.516;23.358;2023-05-24T04:11:43;88348.56;;;14.30;65.82
8047;BME280;67150;42.516;23.358;2023-05-24T04:14:10;88355.91;;;14.33;65.84
8047;BME280;67150;42.516;23.358;2023-05-24T04:16:37;88335.91;;;14.21;65.64
8047;BME280;67150;42.516;23.358;2023-05-24T04:19:07;88356.88;;;14.32;65.77
8047;BME280;67150;42.516;23.358;2023-05-24T04:21:35;88354.56;;;14.29;66.00
8047;BME280;67150;42.516;23.358;2023-05-24T04:24:03;88358.69;;;14.30;65.77
8047;BME280;67150;42.516;23.358;2023-05-24T04:26:31;88359.41;;;14.32;65.84
8047;BME280;67150;42.516;23.358;2023-05-24T04:28:59;88348.56;;;14.30;65.95
8047;BME280;67150;42.516;23.358;2023-05-24T04:31:26;88354.41;;;14.31;65.96
8047;BME280;67150;42.516;23.358;2023-05-24T04:33:55;88351.81;;;14.32;66.04
8047;BME280;67150;42.516;23.358;2023-05-24T04:36:25;88344.97;;;14.33;65.86
8047;BME280;67150;42.516;23.358;2023-05-24T04:38:53;88349.25;;;14.32;65.95
8047;BME280;67150;42.516;23.358;2023-05-24T04:41:21;88356.88;;;14.32;65.72
8047;BME280;67150;42.516;23.358;2023-05-24T04:43:49;88351.09;;;14.30;65.98
8047;BME280;67150;42.516;23.358;2023-05-24T04:46:16;88365.13;;;14.34;65.82
8047;BME280;67150;42.516;23.358;2023-05-24T04:48:43;88357.63;;;14.33;65.99
8047;BME280;67150;42.516;23.358;2023-05-24T04:51:11;88363.50;;;14.33;65.74
8047;BME280;67150;42.516;23.358;2023-05-24T04:53:39;88360.28;;;14.31;65.84
8047;BME280;67150;42.516;23.358;2023-05-24T04:56:07;88370.03;;;14.36;65.73
8047;BME280;67150;42.516;23.358;2023-05-24T04:58:34;88369.28;;;14.35;65.65
8047;BME280;67150;42.516;23.358;2023-05-24T05:01:02;88369.94;;;14.37;65.56
8047;BME280;67150;42.516;23.358;2023-05-24T05:03:29;88370.84;;;14.36;65.65
8047;BME280;67150;42.516;23.358;2023-05-24T05:05:56;88368.31;;;14.36;65.63
8047;BME280;67150;42.516;23.358;2023-05-24T05:08:24;88376.19;;;14.43;65.02
8047;BME280;67150;42.516;23.358;2023-05-24T05:10:53;88384.19;;;14.38;65.29
8047;BME280;67150;42.516;23.358;2023-05-24T05:13:21;88383.53;;;14.36;65.57
8047;BME280;67150;42.516;23.358;2023-05-24T05:15:48;88389.53;;;14.35;65.57
8047;BME280;67150;42.516;23.358;2023-05-24T05:18:16;88380.72;;;14.39;65.28
8047;BME280;67150;42.516;23.358;2023-05-24T05:20:43;88389.94;;;14.40;65.19
8047;BME280;67150;42.516;23.358;2023-05-24T05:23:10;88392.59;;;14.39;65.11
8047;BME280;67150;42.516;23.358;2023-05-24T05:25:38;88391.78;;;14.38;65.22
8047;BME280;67150;42.516;23.358;2023-05-24T05:28:09;88384.88;;;14.40;64.94
8047;BME280;67150;42.516;23.358;2023-05-24T05:30:37;88387.41;;;14.40;65.19
8047;BME280;67150;42.516;23.358;2023-05-24T05:33:04;88384.06;;;14.40;64.93
8047;BME280;67150;42.516;23.358;2023-05-24T05:35:31;88390.19;;;14.37;65.18
8047;BME280;67150;42.516;23.358;2023-05-24T05:37:59;88400.47;;;14.36;65.10
8047;BME280;67150;42.516;23.358;2023-05-24T05:40:26;88390.84;;;14.39;65.16
8047;BME280;67150;42.516;23.358;2023-05-24T05:42:53;88396.06;;;14.38;65.27
8047;BME280;67150;42.516;23.358;2023-05-24T05:45:22;88402.34;;;14.43;64.99
8047;BME280;67150;42.516;23.358;2023-05-24T05:47:50;88403.53;;;14.39;65.13
8047;BME280;67150;42.516;23.358;2023-05-24T05:50:17;88407.53;;;14.42;64.96
8047;BME280;67150;42.516;23.358;2023-05-24T05:52:44;88403.25;;;14.42;65.13
8047;BME280;67150;42.516;23.358;2023-05-24T05:55:11;88409.94;;;14.43;65.03
8047;BME280;67150;42.516;23.358;2023-05-24T05:57:39;88405.94;;;14.41;65.25
8047;BME280;67150;42.516;23.358;2023-05-24T06:00:07;88410.59;;;14.45;65.10
8047;BME280;67150;42.516;23.358;2023-05-24T06:02:37;88416.59;;;14.54;64.68
8047;BME280;67150;42.516;23.358;2023-05-24T06:05:04;88415.28;;;14.50;64.78
8047;BME280;67150;42.516;23.358;2023-05-24T06:07:32;88419.00;;;14.46;65.18
8047;BME280;67150;42.516;23.358;2023-05-24T06:10:00;88419.81;;;14.46;65.23
8047;BME280;67150;42.516;23.358;2023-05-24T06:12:27;88426.34;;;14.49;65.27
8047;BME280;67150;42.516;23.358;2023-05-24T06:14:55;88424.75;;;14.57;64.94
8047;BME280;67150;42.516;23.358;2023-05-24T06:17:23;88419.28;;;14.52;64.91
8047;BME280;67150;42.516;23.358;2023-05-24T06:19:54;88422.47;;;14.54;65.10
8047;BME280;67150;42.516;23.358;2023-05-24T06:22:21;88424.09;;;14.55;65.07
8047;BME280;67150;42.516;23.358;2023-05-24T06:24:48;88425.28;;;14.61;64.82
8047;BME280;67150;42.516;23.358;2023-05-24T06:27:17;88428.06;;;14.58;65.08
8047;BME280;67150;42.516;23.358;2023-05-24T06:29:44;88424.19;;;14.54;65.22
8047;BME280;67150;42.516;23.358;2023-05-24T06:32:11;88429.41;;;14.52;65.24
8047;BME280;67150;42.516;23.358;2023-05-24T06:34:39;88433.41;;;14.55;65.39
8047;BME280;67150;42.516;23.358;2023-05-24T06:37:08;88430.47;;;14.59;65.24
8047;BME280;67150;42.516;23.358;2023-05-24T06:39:39;88428.88;;;14.58;65.01
8047;BME280;67150;42.516;23.358;2023-05-24T06:42:07;88427.28;;;14.57;65.22
8047;BME280;67150;42.516;23.358;2023-05-24T06:44:34;88433.16;;;14.58;65.26
8047;BME280;67150;42.516;23.358;2023-05-24T06:47:03;88431.81;;;14.64;65.22
8047;BME280;67150;42.516;23.358;2023-05-24T06:49:30;88433.00;;;14.59;65.46
8047;BME280;67150;42.516;23.358;2023-05-24T06:51:58;88421.66;;;14.64;65.39
8047;BME280;67150;42.516;23.358;2023-05-24T06:54:26;88433.00;;;14.59;65.62
8047;BME280;67150;42.516;23.358;2023-05-24T06:56:54;88424.72;;;14.67;65.27
8047;BME280;67150;42.516;23.358;2023-05-24T06:59:21;88425.13;;;14.63;65.39
8047;BME280;67150;42.516;23.358;2023-05-24T07:01:49;88427.66;;;14.63;65.55
8047;BME280;67150;42.516;23.358;2023-05-24T07:04:22;88437.16;;;14.61;65.62
8047;BME280;67150;42.516;23.358;2023-05-24T07:06:49;88424.31;;;14.62;65.65
8047;BME280;67150;42.516;23.358;2023-05-24T07:09:17;88420.88;;;14.63;65.54
8047;BME280;67150;42.516;23.358;2023-05-24T07:11:46;88425.41;;;14.59;65.83
8047;BME280;67150;42.516;23.358;2023-05-24T07:14:13;88431.00;;;14.53;66.30
8047;BME280;67150;42.516;23.358;2023-05-24T07:16:43;88434.22;;;14.55;66.27
8047;BME280;67150;42.516;23.358;2023-05-24T07:19:11;88424.34;;;14.52;66.26
8047;BME280;67150;42.516;23.358;2023-05-24T07:21:38;88429.00;;;14.57;66.07
8047;BME280;67150;42.516;23.358;2023-05-24T07:24:07;88432.63;;;14.54;66.34
8047;BME280;67150;42.516;23.358;2023-05-24T07:26:34;88438.34;;;14.56;66.49
8047;BME280;67150;42.516;23.358;2023-05-24T07:29:03;88435.16;;;14.54;67.23
8047;BME280;67150;42.516;23.358;2023-05-24T07:31:30;88445.56;;;14.61;66.60
8047;BME280;67150;42.516;23.358;2023-05-24T07:33:59;88438.88;;;14.60;66.45
8047;BME280;67150;42.516;23.358;2023-05-24T07:36:26;88444.88;;;14.59;66.90
8047;BME280;67150;42.516;23.358;2023-05-24T07:38:57;88438.75;;;14.62;67.05
8047;BME280;67150;42.516;23.358;2023-05-24T07:41:25;88446.22;;;14.63;66.87
8047;BME280;67150;42.516;23.358;2023-05-24T07:43:53;88446.38;;;14.62;67.20
8047;BME280;67150;42.516;23.358;2023-05-24T07:46:22;88438.75;;;14.62;67.68
8047;BME280;67150;42.516;23.358;2023-05-24T07:48:49;88440.75;;;14.68;66.85
8047;BME280;67150;42.516;23.358;2023-05-24T07:51:17;88440.75;;;14.68;67.09
8047;BME280;67150;42.516;23.358;2023-05-24T07:53:45;88441.00;;;14.74;66.40
8047;BME280;67150;42.516;23.358;2023-05-24T07:56:12;88436.06;;;14.73;66.68
8047;BME280;67150;42.516;23.358;2023-05-24T07:58:39;88447.28;;;14.70;67.22
8047;BME280;67150;42.516;23.358;2023-05-24T08:01:08;88442.06;;;14.72;66.98
8047;BME280;67150;42.516;23.358;2023-05-24T08:03:37;88438.47;;;14.74;67.00
8047;BME280;67150;42.516;23.358;2023-05-24T08:06:05;88444.59;;;14.72;67.26
8047;BME280;67150;42.516;23.358;2023-05-24T08:08:32;88447.78;;;14.74;67.26
8047;BME280;67150;42.516;23.358;2023-05-24T08:11:00;88438.19;;;14.77;67.24
8047;BME280;67150;42.516;23.358;2023-05-24T08:13:27;88439.25;;;14.75;67.24
8047;BME280;67150;42.516;23.358;2023-05-24T08:15:55;88438.34;;;14.76;67.49
8047;BME280;67150;42.516;23.358;2023-05-24T08:18:23;88443.78;;;14.81;67.18
8047;BME280;67150;42.516;23.358;2023-05-24T08:20:51;88447.78;;;14.83;67.17
8047;BME280;67150;42.516;23.358;2023-05-24T08:23:19;88438.72;;;14.81;67.52
8047;BME280;67150;42.516;23.358;2023-05-24T08:25:46;88441.00;;;14.84;67.63
8047;BME280;67150;42.516;23.358;2023-05-24T08:28:13;88440.34;;;14.82;67.83
8047;BME280;67150;42.516;23.358;2023-05-24T08:30:41;88445.41;;;14.82;67.54
8047;BME280;67150;42.516;23.358;2023-05-24T08:33:09;88446.72;;;14.86;67.67
8047;BME280;67150;42.516;23.358;2023-05-24T08:35:36;88454.88;;;14.89;67.55
8047;BME280;67150;42.516;23.358;2023-05-24T08:38:05;88442.97;;;14.90;67.43
8047;BME280;67150;42.516;23.358;2023-05-24T08:40:32;88446.72;;;14.86;67.55
8047;BME280;67150;42.516;23.358;2023-05-24T08:43:00;88435.78;;;14.85;67.19
8047;BME280;67150;42.516;23.358;2023-05-24T08:45:29;88454.47;;;14.94;67.25
8047;BME280;67150;42.516;23.358;2023-05-24T08:47:58;88450.44;;;14.91;67.33
8047;BME280;67150;42.516;23.358;2023-05-24T08:50:26;88453.78;;;14.92;67.76
8047;BME280;67150;42.516;23.358;2023-05-24T08:52:54;88459.66;;;14.92;67.55
8047;BME280;67150;42.516;23.358;2023-05-24T08:55:25;88459.00;;;14.90;67.74
8047;BME280;67150;42.516;23.358;2023-05-24T08:57:54;88457.00;;;14.94;68.28
8047;BME280;67150;42.516;23.358;2023-05-24T09:00:21;88457.13;;;14.92;67.91
8047;BME280;67150;42.516;23.358;2023-05-24T09:02:49;88461.41;;;14.92;68.08
8047;BME280;67150;42.516;23.358;2023-05-24T09:05:17;88453.66;;;14.93;68.29
8047;BME280;67150;42.516;23.358;2023-05-24T09:07:47;88458.59;;;14.95;68.36
8047;BME280;67150;42.516;23.358;2023-05-24T09:10:18;88456.19;;;14.93;68.02
8047;BME280;67150;42.516;23.358;2023-05-24T09:12:51;88462.75;;;14.96;68.57
8047;BME280;67150;42.516;23.358;2023-05-24T09:15:20;88467.94;;;14.94;68.60
8047;BME280;67150;42.516;23.358;2023-05-24T09:17:47;88463.53;;;14.96;68.36
8047;BME280;67150;42.516;23.358;2023-05-24T09:20:15;88464.19;;;14.98;68.10
8047;BME280;67150;42.516;23.358;2023-05-24T09:22:42;88453.63;;;15.03;67.43
8047;BME280;67150;42.516;23.358;2023-05-24T09:25:13;88454.84;;;14.99;67.98
8047;BME280;67150;42.516;23.358;2023-05-24T09:27:48;88452.03;;;15.02;68.10
8047;BME280;67150;42.516;23.358;2023-05-24T09:30:18;88458.69;;;15.03;68.29
8047;BME280;67150;42.516;23.358;2023-05-24T09:32:54;88461.25;;;15.03;68.53
8047;BME280;67150;42.516;23.358;2023-05-24T09:35:22;88460.97;;;15.06;68.28
8047;BME280;67150;42.516;23.358;2023-05-24T09:37:53;88466.19;;;15.04;68.51
8047;BME280;67150;42.516;23.358;2023-05-24T09:40:22;88456.84;;;15.05;68.29
8047;BME280;67150;42.516;23.358;2023-05-24T09:43:03;88454.44;;;15.03;68.38
8047;BME280;67150;42.516;23.358;2023-05-24T09:45:32;88452.56;;;15.05;69.67
8047;BME280;67150;42.516;23.358;2023-05-24T09:48:02;88448.28;;;15.06;69.28
8047;BME280;67150;42.516;23.358;2023-05-24T09:50:29;88447.22;;;15.08;68.72
8047;BME280;67150;42.516;23.358;2023-05-24T09:52:57;88453.88;;;15.09;69.18
8047;BME280;67150;42.516;23.358;2023-05-24T09:55:26;88446.97;;;15.11;70.24
8047;BME280;67150;42.516;23.358;2023-05-24T09:58:02;88453.50;;;15.14;69.56
8047;BME280;67150;42.516;23.358;2023-05-24T10:00:34;88453.50;;;15.14;68.78
8047;BME280;67150;42.516;23.358;2023-05-24T10:03:04;88456.03;;;15.14;68.93
8047;BME280;67150;42.516;23.358;2023-05-24T10:05:33;88452.69;;;15.13;69.18
8047;BME280;67150;42.516;23.358;2023-05-24T10:08:01;88449.22;;;15.14;69.86
8047;BME280;67150;42.516;23.358;2023-05-24T10:10:31;88457.34;;;15.18;70.18
8047;BME280;67150;42.516;23.358;2023-05-24T10:12:59;88448.63;;;15.21;70.15
8047;BME280;67150;42.516;23.358;2023-05-24T10:15:27;88437.19;;;15.07;69.57
8047;BME280;67150;42.516;23.358;2023-05-24T10:17:57;88455.47;;;15.20;69.51
8047;BME280;67150;42.516;23.358;2023-05-24T10:20:24;88458.66;;;15.22;69.51
8047;BME280;67150;42.516;23.358;2023-05-24T10:22:55;88437.31;;;15.15;69.11
8047;BME280;67150;42.516;23.358;2023-05-24T10:25:26;88448.53;;;15.22;68.74
8047;BME280;67150;42.516;23.358;2023-05-24T10:27:56;88448.53;;;15.22;69.66
8047;BME280;67150;42.516;23.358;2023-05-24T10:30:27;88446.91;;;15.21;70.11
8047;BME280;67150;42.516;23.358;2023-05-24T10:33:00;88445.44;;;15.28;70.21
8047;BME280;67150;42.516;23.358;2023-05-24T10:35:30;88455.97;;;15.33;69.82
8047;BME280;67150;42.516;23.358;2023-05-24T10:37:59;88437.16;;;15.26;69.51
8047;BME280;67150;42.516;23.358;2023-05-24T10:40:31;88439.16;;;15.32;69.15
8047;BME280;67150;42.516;23.358;2023-05-24T10:43:03;88438.34;;;15.32;69.40
8047;BME280;67150;42.516;23.358;2023-05-24T10:45:32;88434.56;;;15.36;69.67
8047;BME280;67150;42.516;23.358;2023-05-24T10:48:07;88439.66;;;15.36;69.69
8047;BME280;67150;42.516;23.358;2023-05-24T10:50:35;88434.84;;;15.33;69.40
8047;BME280;67150;42.516;23.358;2023-05-24T10:53:13;88433.75;;;15.35;69.53
8047;BME280;67150;42.516;23.358;2023-05-24T10:55:51;88430.94;;;15.38;70.17
8047;BME280;67150;42.516;23.358;2023-05-24T10:58:19;88430.03;;;15.39;70.22
8047;BME280;67150;42.516;23.358;2023-05-24T11:00:50;88421.47;;;15.40;70.43
8047;BME280;67150;42.516;23.358;2023-05-24T11:03:19;88424.66;;;15.42;70.37
8047;BME280;67150;42.516;23.358;2023-05-24T11:05:51;88431.34;;;15.43;70.30
8047;BME280;67150;42.516;23.358;2023-05-24T11:08:23;88432.94;;;15.44;70.07
8047;BME280;67150;42.516;23.358;2023-05-24T11:11:02;88427.72;;;15.46;70.02
8047;BME280;67150;42.516;23.358;2023-05-24T11:13:30;88423.47;;;15.46;70.12
8047;BME280;67150;42.516;23.358;2023-05-24T11:15:58;88419.31;;;15.45;69.46
8047;BME280;67150;42.516;23.358;2023-05-24T11:18:27;88420.91;;;15.46;70.32
8047;BME280;67150;42.516;23.358;2023-05-24T11:20:56;88415.84;;;15.46;69.83
8047;BME280;67150;42.516;23.358;2023-05-24T11:23:25;88424.13;;;15.48;70.37
8047;BME280;67150;42.516;23.358;2023-05-24T11:25:52;88415.59;;;15.49;70.20
8047;BME280;67150;42.516;23.358;2023-05-24T11:28:20;88416.69;;;15.47;69.85
8047;BME280;67150;42.516;23.358;2023-05-24T11:30:48;88419.88;;;15.49;69.37
8047;BME280;67150;42.516;23.358;2023-05-24T11:33:15;88415.84;;;15.46;69.33
8047;BME280;67150;42.516;23.358;2023-05-24T11:35:45;88422.13;;;15.52;69.24
8047;BME280;67150;42.516;23.358;2023-05-24T11:38:13;88417.16;;;15.50;68.70
8047;BME280;67150;42.516;23.358;2023-05-24T11:40:42;88423.59;;;15.54;69.39
8047;BME280;67150;42.516;23.358;2023-05-24T11:43:14;88420.13;;;15.55;69.13
8047;BME280;67150;42.516;23.358;2023-05-24T11:45:42;88414.22;;;15.55;69.02
8047;BME280;67150;42.516;23.358;2023-05-24T11:48:10;88414.06;;;15.56;69.35
8047;BME280;67150;42.516;23.358;2023-05-24T11:50:38;88410.72;;;15.56;69.36
8047;BME280;67150;42.516;23.358;2023-05-24T11:53:09;88403.00;;;15.57;69.12
8047;BME280;67150;42.516;23.358;2023-05-24T11:55:36;88409.53;;;15.60;69.04
8047;BME280;67150;42.516;23.358;2023-05-24T11:58:06;88403.63;;;15.59;69.25
8047;BME280;67150;42.516;23.358;2023-05-24T12:00:37;88410.31;;;15.60;68.92
8047;BME280;67150;42.516;23.358;2023-05-24T12:03:07;88407.63;;;15.62;69.40
8047;BME280;67150;42.516;23.358;2023-05-24T12:05:36;88383.38;;;15.50;68.87
8047;BME280;67150;42.516;23.358;2023-05-24T12:08:05;88401.50;;;15.64;69.15
8047;BME280;67150;42.516;23.358;2023-05-24T12:10:35;88401.34;;;15.66;69.18
8047;BME280;67150;42.516;23.358;2023-05-24T12:13:03;88390.38;;;15.65;69.40
8047;BME280;67150;42.516;23.358;2023-05-24T12:15:31;88384.94;;;15.60;69.26
8047;BME280;67150;42.516;23.358;2023-05-24T12:17:58;88389.56;;;15.65;69.02
8047;BME280;67150;42.516;23.358;2023-05-24T12:20:28;88394.53;;;15.66;68.46
8047;BME280;67150;42.516;23.358;2023-05-24T12:22:55;88388.47;;;15.67;68.84
8047;BME280;67150;42.516;23.358;2023-05-24T12:25:23;88381.53;;;15.69;68.27
8047;BME280;67150;42.516;23.358;2023-05-24T12:27:54;88381.66;;;15.68;68.50
8047;BME280;67150;42.516;23.358;2023-05-24T12:30:22;88389.00;;;15.71;68.37
8047;BME280;67150;42.516;23.358;2023-05-24T12:32:50;88385.53;;;15.72;68.22
8047;BME280;67150;42.516;23.358;2023-05-24T12:35:19;88376.97;;;15.73;68.39
8047;BME280;67150;42.516;23.358;2023-05-24T12:37:47;88382.84;;;15.74;68.16
8047;BME280;67150;42.516;23.358;2023-05-24T12:40:15;88371.03;;;15.64;67.82
8047;BME280;67150;42.516;23.358;2023-05-24T12:42:45;88379.38;;;15.75;68.02
8047;BME280;67150;42.516;23.358;2023-05-24T12:45:17;88387.63;;;15.77;68.43
8047;BME280;67150;42.516;23.358;2023-05-24T12:47:49;88378.28;;;15.77;68.33
8047;BME280;67150;42.516;23.358;2023-05-24T12:50:17;88383.34;;;15.77;68.03
8047;BME280;67150;42.516;23.358;2023-05-24T12:52:44;88378.16;;;15.79;68.36
8047;BME280;67150;42.516;23.358;2023-05-24T12:55:13;88378.00;;;15.80;68.37
8047;BME280;67150;42.516;23.358;2023-05-24T12:57:41;88376.25;;;15.81;67.88
8047;BME280;67150;42.516;23.358;2023-05-24T13:00:10;88378.78;;;15.81;67.94
8047;BME280;67150;42.516;23.358;2023-05-24T13:02:39;88379.44;;;15.83;68.05
8047;BME280;67150;42.516;23.358;2023-05-24T13:05:07;88380.91;;;15.85;67.79
8047;BME280;67150;42.516;23.358;2023-05-24T13:07:35;88377.41;;;15.86;67.57
8047;BME280;67150;42.516;23.358;2023-05-24T13:10:03;88380.59;;;15.88;67.29
8047;BME280;67150;42.516;23.358;2023-05-24T13:12:30;88375.53;;;15.88;67.33